createdAt,value
2018-11-13T00:04:13.602Z,17.57
2018-11-13T00:09:16.746Z,18.37
2018-11-13T00:14:19.893Z,17.53
2018-11-13T00:19:23.127Z,17.33
2018-11-13T00:24:26.263Z,17.37
2018-11-13T00:29:29.470Z,17.50
2018-11-13T00:34:32.550Z,17.27
2018-11-13T00:39:35.774Z,18.20
2018-11-13T00:44:38.915Z,17.73
2018-11-13T00:49:42.045Z,18.83
2018-11-13T00:54:45.277Z,17.07
2018-11-13T00:59:48.398Z,16.67
2018-11-13T01:04:51.781Z,16.07
2018-11-13T01:09:54.949Z,17.50
2018-11-13T01:14:58.157Z,18.27
2018-11-13T01:20:01.381Z,16.67
2018-11-13T01:25:04.841Z,18.37
2018-11-13T01:30:09.492Z,18.13
2018-11-13T01:35:13.962Z,17.73
2018-11-13T01:40:19.506Z,17.03
2018-11-13T01:45:22.653Z,17.70
2018-11-13T01:50:25.822Z,16.33
2018-11-13T01:55:28.962Z,16.63
2018-11-13T02:00:32.125Z,17.77
2018-11-13T02:05:35.253Z,17.53
2018-11-13T02:10:38.438Z,17.30
2018-11-13T02:15:41.649Z,18.03
2018-11-13T02:20:44.866Z,16.70
2018-11-13T02:25:47.997Z,17.53
2018-11-13T02:30:51.337Z,18.80
2018-11-13T02:35:54.450Z,17.23
2018-11-13T02:40:57.590Z,18.93
2018-11-13T02:46:00.718Z,18.43
2018-11-13T02:51:03.853Z,17.60
2018-11-13T02:56:07.109Z,17.87
2018-11-13T03:01:10.297Z,19.77
2018-11-13T03:06:13.501Z,19.13
2018-11-13T03:11:16.697Z,18.93
2018-11-13T03:16:19.917Z,20.60
2018-11-13T03:21:23.120Z,20.30
2018-11-13T03:26:26.330Z,21.17
2018-11-13T03:31:29.565Z,20.63
2018-11-13T03:36:32.783Z,22.37
2018-11-13T03:41:36.169Z,22.20
2018-11-13T03:46:39.334Z,21.87
2018-11-13T03:51:42.508Z,20.80
2018-11-13T03:56:45.667Z,21.20
2018-11-13T04:01:48.829Z,20.03
2018-11-13T04:06:52.018Z,20.17
2018-11-13T04:11:55.183Z,18.33
2018-11-13T04:16:58.343Z,17.70
2018-11-13T04:22:03.028Z,17.30
2018-11-13T04:27:06.271Z,14.53
2018-11-13T04:32:09.441Z,13.23
2018-11-13T04:37:12.682Z,11.97
2018-11-13T04:42:15.837Z,11.73
2018-11-13T04:47:18.995Z,10.73
2018-11-13T04:52:22.270Z,10.10
2018-11-13T04:57:25.434Z,9.07
2018-11-13T05:02:28.621Z,8.57
2018-11-13T05:07:31.833Z,7.83
2018-11-13T16:06:10.268Z,1.10
2018-11-13T16:11:13.346Z,1.33
2018-11-13T16:16:16.486Z,1.00
2018-11-13T16:21:19.754Z,1.70
2018-11-13T16:26:22.918Z,1.27
2018-11-13T16:31:26.215Z,1.90
2018-11-13T16:36:29.382Z,2.30
2018-11-13T16:41:32.534Z,1.00
2018-11-13T16:46:36.125Z,1.47
2018-11-13T16:51:39.361Z,1.83
2018-11-13T16:56:53.250Z,5.43
2018-11-13T17:01:56.463Z,5.93
2018-11-13T17:06:59.784Z,6.37
2018-11-13T17:12:03.413Z,3.97
2018-11-13T17:17:06.683Z,2.57
2018-11-13T17:22:09.841Z,4.03
2018-11-13T17:27:13.097Z,2.70
2018-11-13T17:32:16.259Z,8.23
2018-11-13T17:37:19.554Z,5.03
2018-11-13T17:42:23.789Z,3.93
2018-11-13T17:47:26.930Z,2.60
2018-11-13T17:52:30.177Z,2.40
2018-11-13T17:57:33.296Z,2.00
2018-11-13T18:02:36.541Z,2.73
2018-11-13T18:07:40.269Z,2.20
2018-11-13T18:12:43.365Z,1.77
2018-11-13T18:17:47.390Z,2.63
2018-11-13T18:22:50.604Z,3.20
2018-11-13T18:27:55.100Z,2.33
2018-11-13T18:32:58.884Z,2.17
2018-11-13T18:38:03.540Z,2.83
2018-11-13T18:43:06.972Z,3.10
2018-11-13T18:48:10.142Z,2.70
2018-11-13T18:53:13.417Z,2.67
2018-11-13T18:58:16.531Z,2.53
2018-11-13T19:03:19.761Z,2.00
2018-11-13T19:08:22.885Z,2.37
2018-11-13T19:13:27.317Z,3.37
2018-11-13T19:18:30.632Z,4.07
2018-11-13T19:23:33.617Z,2.97
2018-11-13T19:28:36.779Z,3.33
2018-11-13T19:33:39.950Z,3.10
2018-11-13T19:38:43.177Z,2.80
2018-11-13T19:43:46.433Z,3.23
2018-11-13T19:48:49.689Z,3.07
2018-11-13T19:53:52.944Z,3.00
2018-11-13T19:58:56.065Z,4.20
2018-11-13T20:03:59.294Z,2.60
2018-11-13T20:09:02.413Z,4.10
2018-11-13T20:14:05.654Z,3.37
2018-11-13T20:19:08.850Z,3.60
2018-11-13T20:24:12.045Z,3.47
2018-11-13T20:29:15.197Z,3.00
2018-11-13T20:34:18.375Z,2.93
2018-11-13T20:39:21.514Z,2.33
2018-11-13T20:44:24.897Z,5.53
2018-11-13T20:49:28.109Z,2.73
2018-11-13T20:54:31.312Z,2.30
2018-11-13T20:59:34.710Z,2.70
2018-11-13T21:04:37.837Z,2.33
2018-11-13T21:09:41.094Z,2.20
2018-11-13T21:14:44.170Z,4.10
2018-11-13T21:19:47.396Z,2.93
2018-11-13T21:24:50.502Z,2.77
2018-11-13T21:29:53.717Z,2.93
2018-11-13T21:34:56.877Z,2.67
2018-11-13T21:40:00.038Z,2.60
2018-11-13T21:45:03.200Z,4.17
2018-11-13T21:50:08.336Z,3.13
2018-11-13T21:55:13.535Z,2.93
2018-11-13T22:00:22.797Z,2.03
2018-11-13T22:05:27.004Z,2.13
2018-11-13T22:10:30.248Z,2.67
2018-11-13T22:15:33.405Z,3.37
2018-11-13T22:20:43.613Z,2.17
2018-11-13T22:25:39.864Z,2.70
2018-11-13T22:30:43.042Z,2.90
2018-11-13T22:35:46.286Z,2.63
2018-11-13T22:40:49.468Z,2.60
2018-11-13T22:45:52.701Z,2.40
2018-11-13T22:50:55.959Z,2.50
2018-11-13T22:55:59.090Z,2.20
2018-11-13T23:01:02.733Z,2.83
2018-11-13T23:06:05.446Z,2.60
2018-11-13T23:11:13.841Z,2.93
2018-11-13T23:16:17.011Z,2.77
2018-11-13T23:21:20.170Z,2.40
2018-11-13T23:26:23.352Z,2.70
2018-11-13T23:31:26.781Z,2.73
2018-11-13T23:36:29.765Z,3.57
2018-11-13T23:41:32.938Z,2.60
2018-11-13T23:46:36.129Z,2.63
2018-11-13T23:51:39.299Z,3.10
2018-11-13T23:56:42.457Z,2.67
